createdAt,value
2018-09-29T00:02:24.470Z,6.20
2018-09-29T00:04:52.886Z,6.20
2018-09-29T00:07:21.274Z,6.20
2018-09-29T00:09:49.685Z,6.30
2018-09-29T00:12:18.336Z,6.30
2018-09-29T00:14:46.720Z,6.30
2018-09-29T00:17:15.100Z,6.30
2018-09-29T00:19:43.800Z,6.30
2018-09-29T00:22:12.188Z,6.20
2018-09-29T00:24:40.589Z,6.20
2018-09-29T00:27:09.420Z,6.30
2018-09-29T00:29:37.801Z,6.20
2018-09-29T00:32:06.230Z,6.30
2018-09-29T00:34:34.637Z,6.30
2018-09-29T00:37:03.081Z,6.30
2018-09-29T00:39:31.488Z,6.30
2018-09-29T00:41:59.897Z,6.30
2018-09-29T00:44:28.269Z,6.40
2018-09-29T00:46:56.656Z,6.30
2018-09-29T00:49:25.044Z,6.40
2018-09-29T00:51:53.705Z,6.30
2018-09-29T00:54:22.101Z,6.20
2018-09-29T00:56:50.481Z,6.10
2018-09-29T00:59:18.880Z,6.00
2018-09-29T01:01:47.385Z,5.80
2018-09-29T01:04:15.792Z,5.70
2018-09-29T01:06:44.390Z,5.60
2018-09-29T01:09:12.768Z,5.60
2018-09-29T01:11:41.234Z,5.40
2018-09-29T01:14:09.829Z,5.20
2018-09-29T01:16:38.393Z,5.20
2018-09-29T01:19:06.828Z,5.10
2018-09-29T01:21:35.468Z,5.10
2018-09-29T01:24:03.888Z,5.00
2018-09-29T01:26:32.309Z,5.00
2018-09-29T01:29:00.714Z,5.00
2018-09-29T01:31:29.200Z,5.00
2018-09-29T01:33:57.565Z,5.00
2018-09-29T01:36:26.252Z,5.00
2018-09-29T01:38:54.620Z,5.10
2018-09-29T01:41:23.009Z,5.00
2018-09-29T01:43:51.428Z,5.00
2018-09-29T01:46:19.805Z,5.00
2018-09-29T01:48:48.189Z,5.00
2018-09-29T01:51:16.604Z,5.00
2018-09-29T01:53:44.997Z,5.00
2018-09-29T01:56:13.581Z,5.00
2018-09-29T01:58:41.970Z,4.90
2018-09-29T02:01:10.356Z,4.80
2018-09-29T02:03:38.769Z,4.70
2018-09-29T02:06:07.524Z,4.70
2018-09-29T02:08:35.924Z,4.60
2018-09-29T02:11:04.319Z,4.70
2018-09-29T02:13:32.701Z,4.70
2018-09-29T02:16:01.132Z,4.70
2018-09-29T02:18:29.523Z,4.70
2018-09-29T02:20:57.977Z,4.80
2018-09-29T02:23:26.348Z,4.70
2018-09-29T02:25:54.825Z,4.70
2018-09-29T02:28:23.242Z,4.60
2018-09-29T02:30:52.174Z,4.60
2018-09-29T02:33:20.776Z,4.60
2018-09-29T02:35:49.180Z,4.60
2018-09-29T02:38:17.573Z,4.60
2018-09-29T02:40:46.118Z,4.60
2018-09-29T02:43:14.480Z,4.60
2018-09-29T02:45:42.869Z,4.60
2018-09-29T02:48:11.264Z,4.50
2018-09-29T02:50:39.654Z,4.50
2018-09-29T02:53:08.034Z,4.60
2018-09-29T02:55:36.405Z,4.60
2018-09-29T02:58:05.074Z,4.60
2018-09-29T03:00:33.452Z,4.50
2018-09-29T03:03:01.844Z,4.40
2018-09-29T03:05:30.245Z,4.40
2018-09-29T03:07:58.751Z,4.40
2018-09-29T03:10:27.433Z,4.30
2018-09-29T03:12:55.829Z,4.40
2018-09-29T03:15:24.221Z,4.40
2018-09-29T03:17:53.256Z,4.40
2018-09-29T03:20:21.653Z,4.40
2018-09-29T03:22:50.063Z,4.40
2018-09-29T03:25:18.474Z,4.40
2018-09-29T03:27:46.901Z,4.40
2018-09-29T03:30:15.620Z,4.30
2018-09-29T03:32:44.020Z,4.40
2018-09-29T03:35:12.412Z,4.30
2018-09-29T03:37:40.832Z,4.40
2018-09-29T03:40:09.439Z,4.40
2018-09-29T03:42:37.876Z,4.30
2018-09-29T03:45:06.458Z,4.20
2018-09-29T03:47:35.091Z,4.20
2018-09-29T03:50:03.500Z,4.00
2018-09-29T03:52:31.880Z,3.80
2018-09-29T03:55:00.480Z,3.70
2018-09-29T03:57:28.868Z,3.60
2018-09-29T03:59:57.250Z,3.40
2018-09-29T04:02:25.864Z,3.40
2018-09-29T04:04:54.274Z,3.30
2018-09-29T04:07:22.693Z,3.30
2018-09-29T04:09:51.093Z,3.30
2018-09-29T04:12:19.481Z,3.30
2018-09-29T04:14:47.889Z,3.30
2018-09-29T04:17:16.274Z,3.40
2018-09-29T04:19:44.920Z,3.40
2018-09-29T04:22:13.312Z,3.40
2018-09-29T04:24:41.705Z,3.50
2018-09-29T04:27:10.252Z,3.50
2018-09-29T04:29:38.640Z,3.40
2018-09-29T04:32:07.022Z,3.30
2018-09-29T04:34:35.444Z,3.30
2018-09-29T04:37:03.845Z,3.30
2018-09-29T04:39:32.245Z,3.30
2018-09-29T04:42:00.613Z,3.30
2018-09-29T04:44:29.036Z,3.30
2018-09-29T04:46:57.437Z,3.30
2018-09-29T04:49:25.809Z,3.30
2018-09-29T04:51:54.446Z,3.20
2018-09-29T04:54:22.809Z,3.30
2018-09-29T04:56:51.192Z,3.20
2018-09-29T04:59:19.602Z,3.20
2018-09-29T05:01:47.992Z,3.10
2018-09-29T05:04:16.649Z,3.00
2018-09-29T05:06:45.189Z,3.00
2018-09-29T05:09:13.565Z,3.10
2018-09-29T05:11:42.129Z,3.20
2018-09-29T05:14:10.518Z,3.10
2018-09-29T05:16:38.915Z,3.00
2018-09-29T05:19:07.728Z,3.00
2018-09-29T05:21:36.132Z,2.90
2018-09-29T05:24:04.514Z,2.90
2018-09-29T05:26:33.173Z,3.00
2018-09-29T05:29:01.562Z,3.20
2018-09-29T05:31:29.957Z,3.30
2018-09-29T05:33:58.506Z,3.20
2018-09-29T05:36:26.905Z,3.10
2018-09-29T05:38:55.299Z,3.10
2018-09-29T05:41:23.729Z,3.20
2018-09-29T05:43:52.177Z,3.20
2018-09-29T05:46:21.022Z,3.40
2018-09-29T05:48:49.430Z,3.70
2018-09-29T05:51:17.872Z,3.80
2018-09-29T05:53:46.429Z,4.00
2018-09-29T05:56:14.890Z,4.10
2018-09-29T05:58:43.294Z,4.20
2018-09-29T06:01:11.996Z,4.20
2018-09-29T06:03:40.494Z,4.20
2018-09-29T06:06:09.033Z,4.20
2018-09-29T06:08:37.853Z,4.30
2018-09-29T06:11:06.279Z,4.40
2018-09-29T06:13:34.661Z,4.60
2018-09-29T06:16:03.268Z,4.60
2018-09-29T06:18:31.676Z,4.50
2018-09-29T06:21:00.156Z,4.50
2018-09-29T06:23:28.503Z,4.50
2018-09-29T06:25:56.945Z,4.40
2018-09-29T06:28:25.358Z,4.40
2018-09-29T06:30:53.760Z,4.40
2018-09-29T06:33:22.150Z,4.50
2018-09-29T06:35:50.556Z,4.50
2018-09-29T06:38:19.029Z,4.60
2018-09-29T06:40:47.418Z,4.80
2018-09-29T06:43:15.976Z,5.00
2018-09-29T06:45:44.405Z,5.30
2018-09-29T06:48:12.868Z,5.70
2018-09-29T06:50:41.268Z,5.80
2018-09-29T06:53:09.672Z,5.80
2018-09-29T06:55:38.365Z,5.90
2018-09-29T06:58:06.727Z,5.90
2018-09-29T07:00:35.113Z,6.00
2018-09-29T07:03:03.548Z,6.10
2018-09-29T07:05:32.024Z,6.20
2018-09-29T07:08:00.537Z,6.30
2018-09-29T07:10:29.077Z,6.50
2018-09-29T07:12:57.630Z,6.70
2018-09-29T07:15:26.065Z,6.80
2018-09-29T07:17:54.597Z,7.00
2018-09-29T07:20:23.619Z,7.10
2018-09-29T07:22:52.036Z,7.20
2018-09-29T07:25:20.721Z,7.40
2018-09-29T07:27:49.028Z,7.60
2018-09-29T07:30:17.398Z,7.80
2018-09-29T07:32:45.818Z,8.00
2018-09-29T07:35:14.228Z,8.10
2018-09-29T07:37:42.759Z,8.20
2018-09-29T07:40:11.128Z,8.30
2018-09-29T07:42:39.505Z,8.30
2018-09-29T07:45:07.917Z,8.40
2018-09-29T07:47:36.290Z,8.60
2018-09-29T07:50:04.765Z,9.10
2018-09-29T07:52:33.164Z,9.70
2018-09-29T07:55:01.541Z,9.90
2018-09-29T07:57:30.113Z,9.70
2018-09-29T07:59:58.493Z,9.70
2018-09-29T08:02:26.856Z,9.70
2018-09-29T08:04:55.597Z,9.70
2018-09-29T08:07:23.982Z,9.80
2018-09-29T08:09:52.377Z,9.80
2018-09-29T08:12:20.830Z,9.90
2018-09-29T08:14:49.292Z,10.00
2018-09-29T08:17:17.712Z,10.00
2018-09-29T08:19:46.153Z,10.10
2018-09-29T08:22:14.666Z,10.20
2018-09-29T08:24:43.179Z,10.20
2018-09-29T08:27:11.584Z,10.40
2018-09-29T08:29:40.068Z,10.90
2018-09-29T08:32:08.503Z,11.90
2018-09-29T08:34:36.906Z,12.60
2018-09-29T08:37:05.351Z,12.80
2018-09-29T08:39:33.790Z,12.50
2018-09-29T08:42:02.220Z,12.40
2018-09-29T08:44:30.627Z,12.30
2018-09-29T08:46:59.137Z,12.20
2018-09-29T08:49:27.557Z,12.20
2018-09-29T08:51:55.981Z,12.50
2018-09-29T08:54:24.388Z,12.50
2018-09-29T08:56:52.841Z,12.60
2018-09-29T08:59:21.309Z,12.60
2018-09-29T09:01:49.707Z,12.60
2018-09-29T09:04:18.129Z,12.50
2018-09-29T09:06:46.550Z,12.70
2018-09-29T09:09:15.180Z,12.80
2018-09-29T09:11:43.667Z,13.00
2018-09-29T09:14:12.413Z,13.00
2018-09-29T09:16:40.834Z,13.00
2018-09-29T09:19:09.246Z,13.10
2018-09-29T09:21:37.873Z,13.20
2018-09-29T09:24:07.236Z,13.30
2018-09-29T09:26:35.604Z,13.50
2018-09-29T09:29:04.234Z,13.70
2018-09-29T09:31:32.645Z,13.90
2018-09-29T09:34:01.036Z,14.00
2018-09-29T09:36:29.592Z,14.20
2018-09-29T09:38:58.028Z,14.40
2018-09-29T09:41:26.476Z,14.30
2018-09-29T09:43:55.008Z,14.30
2018-09-29T09:46:23.651Z,14.20
2018-09-29T09:48:52.073Z,14.20
2018-09-29T09:51:20.476Z,14.40
2018-09-29T09:53:48.871Z,14.50
2018-09-29T09:56:17.337Z,14.80
2018-09-29T09:58:45.729Z,14.80
2018-09-29T10:01:19.813Z,14.90
2018-09-29T10:03:48.387Z,15.20
2018-09-29T10:06:16.829Z,15.40
2018-09-29T10:08:45.454Z,16.30
2018-09-29T10:11:13.820Z,16.80
2018-09-29T10:13:42.254Z,17.90
2018-09-29T10:16:10.648Z,19.30
2018-09-29T10:18:39.067Z,20.20
2018-09-29T10:21:07.497Z,20.60
2018-09-29T10:23:35.939Z,21.30
2018-09-29T10:26:04.489Z,21.70
2018-09-29T10:28:32.876Z,21.80
2018-09-29T10:31:01.348Z,22.40
2018-09-29T10:33:29.737Z,22.40
2018-09-29T10:35:58.122Z,22.20
2018-09-29T10:38:26.576Z,21.60
2018-09-29T10:40:55.612Z,22.10
2018-09-29T10:43:24.305Z,22.30
2018-09-29T10:45:52.823Z,23.10
2018-09-29T10:48:21.225Z,23.10
2018-09-29T10:50:49.637Z,22.70
2018-09-29T10:53:18.128Z,23.20
2018-09-29T10:55:46.565Z,22.70
2018-09-29T10:58:15.003Z,22.50
2018-09-29T11:00:43.432Z,22.90
2018-09-29T11:03:11.857Z,22.70
2018-09-29T11:05:40.271Z,21.70
2018-09-29T11:08:09.097Z,21.10
2018-09-29T11:10:37.611Z,21.40
2018-09-29T11:13:06.028Z,22.00
2018-09-29T11:15:34.466Z,22.50
2018-09-29T11:18:02.952Z,23.30
2018-09-29T11:20:31.404Z,22.90
2018-09-29T11:22:59.964Z,23.50
2018-09-29T11:25:28.363Z,23.70
2018-09-29T11:27:56.852Z,23.40
2018-09-29T11:30:25.362Z,22.40
2018-09-29T11:32:53.773Z,22.10
2018-09-29T11:35:22.172Z,22.10
2018-09-29T11:37:50.704Z,22.30
2018-09-29T11:40:19.226Z,22.60
2018-09-29T11:42:47.595Z,21.80
2018-09-29T11:45:16.010Z,21.90
2018-09-29T11:47:44.481Z,22.20
2018-09-29T11:50:12.906Z,22.10
2018-09-29T11:52:41.568Z,22.40
2018-09-29T11:55:09.974Z,22.20
2018-09-29T11:57:38.372Z,22.40
2018-09-29T12:00:06.940Z,22.30
2018-09-29T12:02:35.349Z,22.40
2018-09-29T12:05:03.840Z,22.50
2018-09-29T12:07:32.786Z,22.80
2018-09-29T12:10:01.871Z,22.40
2018-09-29T12:12:30.325Z,22.60
2018-09-29T12:14:58.731Z,22.40
2018-09-29T12:17:27.345Z,22.10
2018-09-29T12:19:55.887Z,22.10
2018-09-29T12:22:24.415Z,22.20
2018-09-29T12:24:52.704Z,22.40
2018-09-29T12:27:24.918Z,22.30
2018-09-29T12:29:49.911Z,22.00
2018-09-29T12:32:18.284Z,21.80
2018-09-29T12:34:46.688Z,21.00
2018-09-29T12:37:15.616Z,20.70
2018-09-29T12:39:43.896Z,21.10
2018-09-29T12:42:12.309Z,21.80
2018-09-29T12:44:41.315Z,21.90
2018-09-29T12:47:09.702Z,22.00
2018-09-29T12:49:38.157Z,21.40
2018-09-29T12:52:06.610Z,21.50
2018-09-29T12:54:35.101Z,20.90
2018-09-29T12:57:03.524Z,20.80
2018-09-29T12:59:31.949Z,21.30
2018-09-29T13:02:00.650Z,21.80
2018-09-29T13:04:29.292Z,21.50
2018-09-29T13:06:57.672Z,21.10
2018-09-29T13:09:26.289Z,20.90
2018-09-29T13:11:54.989Z,20.80
2018-09-29T13:14:23.463Z,20.50
2018-09-29T13:16:51.935Z,20.20
2018-09-29T13:19:20.427Z,19.80
2018-09-29T13:21:48.902Z,20.10
2018-09-29T13:24:17.283Z,20.30
2018-09-29T13:26:45.703Z,20.30
2018-09-29T13:29:14.444Z,20.10
2018-09-29T13:31:43.103Z,20.10
2018-09-29T13:34:11.461Z,19.70
2018-09-29T13:36:39.889Z,19.20
2018-09-29T13:39:08.284Z,18.90
2018-09-29T13:41:36.716Z,18.80
2018-09-29T13:44:05.122Z,18.60
2018-09-29T13:46:33.689Z,18.40
2018-09-29T13:49:02.092Z,18.00
2018-09-29T13:51:30.505Z,17.90
2018-09-29T13:53:58.941Z,18.00
2018-09-29T13:56:27.346Z,17.90
2018-09-29T13:58:55.737Z,18.00
2018-09-29T14:01:24.282Z,18.30
2018-09-29T14:03:52.689Z,18.50
2018-09-29T14:06:21.401Z,18.60
2018-09-29T14:08:49.807Z,18.20
2018-09-29T14:11:18.281Z,18.20
2018-09-29T14:13:46.733Z,18.10
2018-09-29T14:16:15.148Z,17.90
2018-09-29T14:18:43.556Z,17.70
2018-09-29T14:21:12.377Z,17.60
2018-09-29T14:23:40.783Z,17.60
2018-09-29T14:26:09.535Z,17.50
2018-09-29T14:28:37.975Z,17.30
2018-09-29T14:31:06.426Z,17.20
2018-09-29T14:33:34.864Z,17.10
2018-09-29T14:36:03.277Z,17.10
2018-09-29T14:38:31.749Z,17.00
2018-09-29T14:41:00.436Z,17.00
2018-09-29T14:43:28.850Z,17.00
2018-09-29T14:45:57.468Z,16.90
2018-09-29T14:48:26.085Z,16.70
2018-09-29T14:50:54.657Z,16.80
2018-09-29T14:53:23.105Z,16.90
2018-09-29T14:55:52.480Z,17.00
2018-09-29T14:58:20.877Z,17.00
2018-09-29T15:00:49.553Z,16.90
2018-09-29T15:03:17.968Z,16.70
2018-09-29T15:05:46.436Z,16.50
2018-09-29T15:08:15.381Z,16.50
2018-09-29T15:10:43.813Z,16.50
2018-09-29T15:13:12.228Z,16.50
2018-09-29T15:15:40.789Z,16.50
2018-09-29T15:18:09.258Z,16.50
2018-09-29T15:20:37.702Z,16.50
2018-09-29T15:23:06.432Z,16.60
2018-09-29T15:25:34.818Z,16.60
2018-09-29T15:28:03.765Z,16.60
2018-09-29T15:30:32.407Z,16.50
2018-09-29T15:33:00.894Z,16.40
2018-09-29T15:35:29.297Z,16.20
2018-09-29T15:37:57.726Z,16.10
2018-09-29T15:40:26.161Z,16.10
2018-09-29T15:42:54.807Z,16.00
2018-09-29T15:45:23.153Z,16.00
2018-09-29T15:47:51.572Z,15.90
2018-09-29T15:50:20.057Z,15.90
2018-09-29T15:52:48.798Z,15.90
2018-09-29T15:55:17.326Z,15.80
2018-09-29T15:57:45.626Z,15.80
2018-09-29T16:00:14.045Z,15.80
2018-09-29T16:02:42.444Z,15.70
2018-09-29T16:05:10.848Z,15.70
2018-09-29T16:07:39.394Z,15.70
2018-09-29T16:10:07.792Z,15.70
2018-09-29T16:12:36.449Z,15.70
2018-09-29T16:15:05.013Z,15.50
2018-09-29T16:17:33.439Z,15.50
2018-09-29T16:20:01.831Z,15.40
2018-09-29T16:22:30.237Z,15.30
2018-09-29T16:24:58.669Z,15.20
2018-09-29T16:27:27.077Z,15.00
2018-09-29T16:29:55.493Z,14.90
2018-09-29T16:32:23.980Z,14.80
2018-09-29T16:34:52.574Z,14.70
2018-09-29T16:37:20.985Z,14.60
2018-09-29T16:39:50.429Z,14.40
2018-09-29T16:42:18.843Z,14.40
2018-09-29T16:44:47.225Z,14.30
2018-09-29T16:47:15.658Z,14.20
2018-09-29T16:49:44.041Z,14.10
2018-09-29T16:52:13.157Z,14.00
2018-09-29T16:54:41.737Z,13.80
2018-09-29T16:57:10.126Z,13.60
2018-09-29T16:59:38.562Z,13.30
2018-09-29T17:02:07.013Z,13.10
2018-09-29T17:04:35.545Z,12.80
2018-09-29T17:07:03.877Z,12.70
2018-09-29T17:09:32.281Z,12.50
2018-09-29T17:12:00.722Z,12.40
2018-09-29T17:14:29.273Z,12.30
2018-09-29T17:16:57.730Z,12.20
2018-09-29T17:19:26.555Z,12.20
2018-09-29T17:21:55.051Z,12.10
2018-09-29T17:24:23.388Z,12.00
2018-09-29T17:26:51.921Z,11.90
2018-09-29T17:29:20.364Z,11.80
2018-09-29T17:31:48.980Z,11.70
2018-09-29T17:34:17.468Z,11.70
2018-09-29T17:36:45.968Z,11.60
2018-09-29T17:39:14.589Z,11.60
2018-09-29T17:41:43.025Z,11.50
2018-09-29T17:44:11.431Z,11.40
2018-09-29T17:46:39.949Z,11.40
2018-09-29T17:49:08.392Z,11.40
2018-09-29T17:51:36.819Z,11.30
2018-09-29T17:54:05.244Z,11.40
2018-09-29T17:56:33.699Z,11.40
2018-09-29T17:59:02.129Z,11.20
2018-09-29T18:01:30.533Z,11.10
2018-09-29T18:03:59.100Z,10.90
2018-09-29T18:06:27.484Z,10.80
2018-09-29T18:08:55.919Z,10.80
2018-09-29T18:11:24.357Z,10.80
2018-09-29T18:13:52.837Z,10.70
2018-09-29T18:16:21.315Z,10.50
2018-09-29T18:18:49.795Z,10.30
2018-09-29T18:21:18.263Z,10.20
2018-09-29T18:23:46.680Z,10.10
2018-09-29T18:26:15.265Z,9.90
2018-09-29T18:28:43.683Z,9.90
2018-09-29T18:31:12.076Z,9.90
2018-09-29T18:33:40.762Z,9.80
2018-09-29T18:36:09.217Z,9.80
2018-09-29T18:38:38.193Z,9.70
2018-09-29T18:41:06.890Z,9.60
2018-09-29T18:43:35.274Z,9.60
2018-09-29T18:46:03.754Z,9.50
2018-09-29T18:48:32.358Z,9.60
2018-09-29T18:51:00.992Z,9.50
2018-09-29T18:53:29.768Z,9.40
2018-09-29T18:55:58.412Z,9.30
2018-09-29T18:58:26.809Z,9.30
2018-09-29T19:00:55.233Z,9.30
2018-09-29T19:03:23.792Z,9.10
2018-09-29T19:05:52.210Z,9.10
2018-09-29T19:08:20.754Z,9.00
2018-09-29T19:10:49.289Z,9.00
2018-09-29T19:13:17.865Z,8.90
2018-09-29T19:15:46.291Z,8.90
2018-09-29T19:18:14.698Z,8.90
2018-09-29T19:20:43.180Z,8.80
2018-09-29T19:23:11.616Z,8.70
2018-09-29T19:25:40.178Z,8.70
2018-09-29T19:28:08.706Z,8.60
2018-09-29T19:30:37.336Z,8.60
2018-09-29T19:33:05.904Z,8.50
2018-09-29T19:35:34.331Z,8.40
2018-09-29T19:38:03.070Z,8.30
2018-09-29T19:40:31.455Z,8.20
2018-09-29T19:43:00.257Z,8.20
2018-09-29T19:45:28.747Z,8.20
2018-09-29T19:47:57.122Z,8.10
2018-09-29T19:50:25.549Z,8.10
2018-09-29T19:52:54.006Z,8.10
2018-09-29T19:55:22.679Z,8.00
2018-09-29T19:57:51.081Z,7.90
2018-09-29T20:00:19.558Z,7.90
2018-09-29T20:02:48.085Z,7.90
2018-09-29T20:05:16.486Z,7.90
2018-09-29T20:07:44.973Z,7.80
2018-09-29T20:10:13.594Z,7.80
2018-09-29T20:12:41.929Z,7.70
2018-09-29T20:15:10.311Z,7.70
2018-09-29T20:17:38.978Z,7.60
2018-09-29T20:20:07.390Z,7.50
2018-09-29T20:22:35.829Z,7.50
2018-09-29T20:25:04.251Z,7.40
2018-09-29T20:27:32.659Z,7.30
2018-09-29T20:30:01.064Z,7.20
2018-09-29T20:32:29.499Z,7.20
2018-09-29T20:34:57.885Z,7.20
2018-09-29T20:37:26.289Z,7.20
2018-09-29T20:39:54.694Z,7.10
2018-09-29T20:42:23.081Z,7.00
2018-09-29T20:44:51.746Z,7.00
2018-09-29T20:47:20.152Z,7.00
2018-09-29T20:49:48.623Z,7.00
2018-09-29T20:52:17.168Z,7.00
2018-09-29T20:54:45.561Z,6.90
2018-09-29T20:57:14.013Z,6.90
2018-09-29T20:59:42.601Z,6.90
2018-09-29T21:02:11.189Z,6.90
2018-09-29T21:04:39.617Z,6.80
2018-09-29T21:07:08.073Z,6.80
2018-09-29T21:09:36.504Z,6.80
2018-09-29T21:12:04.944Z,6.70
2018-09-29T21:14:33.394Z,6.80
2018-09-29T21:17:01.854Z,6.80
2018-09-29T21:19:30.282Z,6.80
2018-09-29T21:21:58.697Z,6.80
2018-09-29T21:24:27.093Z,6.70
2018-09-29T21:26:55.521Z,6.70
2018-09-29T21:29:23.944Z,6.50
2018-09-29T21:31:52.556Z,6.50
2018-09-29T21:34:20.977Z,6.50
2018-09-29T21:36:49.368Z,6.50
2018-09-29T21:39:17.821Z,6.60
2018-09-29T21:41:46.226Z,6.50
2018-09-29T21:44:14.736Z,6.40
2018-09-29T21:46:43.170Z,6.40
2018-09-29T21:49:11.594Z,6.40
2018-09-29T21:51:41.702Z,6.50
2018-09-29T21:54:10.249Z,6.30
2018-09-29T21:56:38.661Z,6.20
2018-09-29T21:59:07.100Z,6.10
2018-09-29T22:01:35.511Z,6.10
2018-09-29T22:04:04.315Z,6.20
2018-09-29T22:06:32.837Z,6.10
2018-09-29T22:09:01.253Z,6.10
2018-09-29T22:11:29.669Z,6.00
2018-09-29T22:13:58.253Z,5.90
2018-09-29T22:16:26.672Z,5.80
2018-09-29T22:18:55.063Z,5.70
2018-09-29T22:21:23.461Z,5.80
2018-09-29T22:23:51.862Z,5.90
2018-09-29T22:26:20.313Z,5.90
2018-09-29T22:28:48.745Z,5.80
2018-09-29T22:31:17.152Z,5.80
2018-09-29T22:33:45.560Z,5.70
2018-09-29T22:36:14.178Z,5.80
2018-09-29T22:38:42.577Z,5.70
2018-09-29T22:41:11.055Z,5.70
2018-09-29T22:43:39.504Z,5.60
2018-09-29T22:46:07.908Z,5.50
2018-09-29T22:48:36.315Z,5.60
2018-09-29T22:51:04.724Z,5.70
2018-09-29T22:53:33.130Z,5.60
2018-09-29T22:56:01.513Z,5.50
2018-09-29T22:58:29.914Z,5.40
2018-09-29T23:00:58.308Z,5.40
2018-09-29T23:03:26.800Z,5.40
2018-09-29T23:05:55.479Z,5.60
2018-09-29T23:08:23.928Z,5.50
2018-09-29T23:10:52.345Z,5.50
2018-09-29T23:13:20.776Z,5.50
2018-09-29T23:15:49.173Z,5.40
2018-09-29T23:18:17.868Z,5.30
2018-09-29T23:20:46.356Z,5.20
2018-09-29T23:23:14.739Z,5.30
2018-09-29T23:25:43.369Z,5.30
2018-09-29T23:28:11.776Z,5.30
2018-09-29T23:30:40.201Z,5.30
2018-09-29T23:33:08.805Z,5.20
2018-09-29T23:35:37.183Z,5.10
2018-09-29T23:38:05.741Z,5.20
2018-09-29T23:40:34.180Z,5.20
2018-09-29T23:43:02.572Z,5.20
2018-09-29T23:45:31.116Z,5.10
2018-09-29T23:47:59.521Z,5.00
2018-09-29T23:50:27.910Z,5.00
2018-09-29T23:52:56.276Z,5.00
2018-09-29T23:55:24.693Z,5.00
2018-09-29T23:57:53.179Z,5.00
